ADDS METAR Data INFO
IDs: Format: Raw Decoded Include TAF

Data at: 0311 UTC 20 Jul 2018

KD50 200255Z AUTO 35005KT 10SM SCT042 SCT048 20/16 A2997 RMK AO2
KD50 200235Z AUTO 33005KT 10SM CLR 20/16 A2996 RMK AO2
KD50 200215Z AUTO 35005KT 10SM CLR 22/16 A2995 RMK AO2
KD50 200155Z AUTO 35008KT 10SM CLR 23/15 A2994 RMK AO2
KD50 200135Z AUTO 35007KT 10SM CLR 23/15 A2994 RMK AO2
KD50 200115Z AUTO 36011KT 10SM CLR 24/14 A2993 RMK AO2
KD50 200055Z AUTO 36013KT 10SM CLR 24/14 A2992 RMK AO2
KD50 200035Z AUTO 36012KT 10SM FEW036 FEW046 25/16 A2992 RMK AO2
KD50 200015Z AUTO 01015G20KT 10SM FEW048 FEW055 25/16 A2992 RMK AO2
KD50 192355Z AUTO 36011G17KT 10SM FEW041 FEW047 FEW055 26/16 A2992 RMK AO2
KD50 192335Z AUTO 36016KT 10SM FEW040 SCT050 SCT060 26/16 A2991 RMK AO2
KD50 192315Z AUTO 34014G20KT 10SM SCT049 SCT060 SCT075 27/16 A2991 RMK AO2 LTG DSNT E
KD50 192255Z AUTO 36013G18KT 10SM FEW041 FEW047 FEW055 27/15 A2990 RMK AO2 LTG DSNT E
KD50 192235Z AUTO 34013G20KT 10SM CLR 26/15 A2990 RMK AO2
KD50 192215Z AUTO 35013G21KT 10SM VCTS CLR 27/16 A2990 RMK AO2 LTG DSNT NE
KD50 192155Z AUTO 35015KT 10SM FEW110 27/15 A2990 RMK AO2
KD50 192135Z AUTO 34017KT 10SM FEW045 FEW065 SCT110 27/16 A2990 RMK AO2
KD50 192115Z AUTO 34012KT 10SM FEW046 FEW065 FEW110 28/15 A2990 RMK AO2 LTG DSNT N AND E
KD50 192055Z AUTO 35011G17KT 10SM FEW060 FEW070 27/15 A2990 RMK AO2
KD50 192035Z AUTO 34015KT 10SM FEW048 FEW055 SCT070 27/15 A2990 RMK AO2
KD50 192015Z AUTO 32012G17KT 10SM FEW041 FEW048 FEW060 28/15 A2990 RMK AO2
KD50 191955Z AUTO 33016G21KT 10SM SCT042 SCT050 BKN065 27/15 A2990 RMK AO2
KD50 191935Z AUTO 35015G20KT 10SM SCT041 BKN050 27/16 A2990 RMK AO2
KD50 191915Z AUTO 35012KT 10SM SCT041 BKN049 BKN075 27/16 A2990 RMK AO2
KD50 191855Z AUTO 34011G17KT 10SM SCT041 SCT050 SCT120 28/16 A2990 RMK AO2
KD50 191835Z AUTO 33013KT 10SM SCT040 27/16 A2990 RMK AO2
KD50 191815Z AUTO 36013KT 10SM CLR 27/16 A2989 RMK AO2
KD50 191755Z AUTO 36012KT 10SM CLR 27/16 A2989 RMK AO2
KD50 191735Z AUTO 33012KT 10SM CLR 27/16 A2989 RMK AO2
KD50 191715Z AUTO 32011KT 10SM CLR 26/16 A2989 RMK AO2
KD50 191655Z AUTO 33009KT 10SM CLR 26/16 A2989 RMK AO2
KD50 191635Z AUTO 32008KT 10SM CLR 25/16 A2989 RMK AO2
KD50 191615Z AUTO 02008KT 10SM CLR 24/18 A2988 RMK AO2
KD50 191555Z AUTO 33009G16KT 10SM FEW090 24/17 A2988 RMK AO2
KD50 191535Z AUTO 34009KT 10SM SCT090 23/17 A2988 RMK AO2
KD50 191515Z AUTO 33010KT 10SM SCT090 23/17 A2988 RMK AO2
KD50 191455Z AUTO 32009KT 10SM CLR 22/16 A2987 RMK AO2
KD50 191435Z AUTO 31011KT 10SM CLR 22/16 A2987 RMK AO2
KD50 191415Z AUTO 30012KT 10SM CLR 21/16 A2987 RMK AO2
KD50 191355Z AUTO 30008KT 10SM CLR 21/16 A2987 RMK AO2
KD50 191335Z AUTO 28004KT 10SM CLR 19/16 A2987 RMK AO2
KD50 191315Z AUTO 25007KT 10SM SCT100 18/17 A2986 RMK AO2
KD50 191255Z AUTO 22008KT 10SM BKN100 19/17 A2984 RMK AO2
KD50 191235Z AUTO 22006KT 10SM SCT110 18/16 A2985 RMK AO2
KD50 191215Z AUTO 21005KT 10SM CLR 18/16 A2984 RMK AO2
KD50 191155Z AUTO 18006KT 10SM CLR 18/16 A2983 RMK AO2
KD50 191135Z AUTO 18006KT 10SM CLR 18/16 A2984 RMK AO2
KD50 191115Z AUTO 17004KT 10SM CLR 17/15 A2985 RMK AO2
KD50 191055Z AUTO 12004KT 10SM SCT120 17/15 A2986 RMK AO2
KD50 191035Z AUTO 00000KT 10SM SCT120 17/15 A2987 RMK AO2
KD50 191015Z AUTO 00000KT 10SM CLR 17/15 A2987 RMK AO2
KD50 190955Z AUTO 35003KT 10SM CLR 17/15 A2987 RMK AO2
KD50 190935Z AUTO 00000KT 10SM CLR 18/14 A2986 RMK AO2
KD50 190915Z AUTO VRB04KT 10SM CLR 18/13 A2985 RMK AO2
KD50 190855Z AUTO VRB04G10KT 10SM CLR 22/12 A2985 RMK AO2
KD50 190835Z AUTO VRB06G14KT 10SM CLR 23/11 A2984 RMK AO2
KD50 190815Z AUTO 09013KT 10SM CLR 20/12 A2983 RMK AO2
KD50 190755Z AUTO 24007KT 10SM CLR 21/12 A2982 RMK AO2
KD50 190735Z AUTO 24009KT 10SM CLR 21/11 A2982 RMK AO2
KD50 190715Z AUTO 24012KT 10SM FEW034 FEW110 21/12 A2983 RMK AO2
KD50 190655Z AUTO 25012G20KT 10SM FEW035 SCT085 BKN110 21/13 A2984 RMK AO2 LTG DSNT S AND NW
KD50 190635Z AUTO 28012G23KT 10SM BKN110 21/13 A2986 RMK AO2
KD50 190615Z AUTO 28012G17KT 240V300 10SM CLR 20/13 A2987 RMK AO2
KD50 190555Z AUTO 25008KT 10SM CLR 21/12 A2984 RMK AO2
KD50 190535Z AUTO 21006G11KT 10SM CLR 22/12 A2982 RMK AO2
KD50 190515Z AUTO 20010G16KT 10SM CLR 21/13 A2983 RMK AO2
KD50 190455Z AUTO 22010G15KT 10SM CLR 22/12 A2983 RMK AO2
KD50 190435Z AUTO 23014KT 10SM CLR 22/12 A2984 RMK AO2
KD50 190415Z AUTO 24014G20KT 10SM CLR 22/12 A2985 RMK AO2
KD50 190355Z AUTO 23015G21KT 10SM CLR 23/11 A2987 RMK AO2 LTG DSNT S
KD50 190335Z AUTO 23011KT 10SM CLR 23/11 A2987 RMK AO2 LTG DSNT S AND SW
KD50 190315Z AUTO 24009G15KT 10SM CLR 23/13 A2987 RMK AO2 LTG DSNT SW AND W
KD50 190255Z AUTO 25014KT 10SM CLR 21/14 A2987 RMK AO2 LTG DSNT S-W
KD50 190235Z AUTO 22005KT 10SM CLR 22/14 A2985 RMK AO2 LTG DSNT W
KD50 190215Z AUTO 21007KT 10SM CLR 21/15 A2985 RMK AO2
KD50 190155Z AUTO 21004KT 8SM CLR 22/14 A2986 RMK AO2
KD50 190135Z AUTO 13006KT 10SM CLR 23/15 A2986 RMK AO2 LTG DSNT W
KD50 190115Z AUTO 08008KT 10SM CLR 23/15 A2986 RMK AO2
KD50 190055Z AUTO 31003KT 10SM CLR 23/15 A2986 RMK AO2 LTG DSNT NW
KD50 190035Z AUTO 32014G19KT 10SM CLR 25/12 A2988 RMK AO2
KD50 190015Z AUTO 31005KT 9SM VCTS CLR 25/13 A2987 RMK AO2 LTG DSNT W AND NW
KD50 182355Z AUTO 33005KT 10SM CLR 24/12 A2986 RMK AO2 LTG DSNT NW
KD50 182335Z AUTO 36011G19KT 10SM CLR 23/11 A2988 RMK AO2
KD50 182315Z AUTO 36021G27KT 10SM CLR 26/12 A2988 RMK AO2 LTG DSNT N
KD50 182255Z AUTO 20011KT 9SM FEW120 29/17 A2987 RMK AO2 LTG DSNT W-N
KD50 182235Z AUTO 18014G20KT 7SM VCTS CLR 30/17 A2986 RMK AO2 LTG DSNT W-NE
KD50 182215Z AUTO 18017KT 9SM VCTS CLR 30/17 A2987 RMK AO2 LTG DSNT ALQDS
KD50 182155Z AUTO 22010G16KT 9SM FEW060 FEW080 31/17 A2987 RMK AO2 LTG DSNT NE AND E
KD50 182135Z AUTO 20009KT 10SM FEW050 FEW060 FEW070 32/16 A2988 RMK AO2 LTG DSNT NE AND E
KD50 182115Z AUTO 22011KT 10SM FEW050 SCT055 SCT070 31/17 A2988 RMK AO2 LTG DSNT E AND SE
KD50 182055Z AUTO 20010G15KT 10SM CLR 31/17 A2989 RMK AO2 LTG DSNT NE
KD50 182035Z AUTO 24010KT 10SM CLR 31/17 A2989 RMK AO2 LTG DSNT SE AND S
KD50 182015Z AUTO 24011KT 10SM CLR 31/18 A2989 RMK AO2
KD50 181955Z AUTO 26009KT 10SM CLR 31/17 A2989 RMK AO2
KD50 181935Z AUTO 23011G17KT 10SM CLR 30/17 A2989 RMK AO2
KD50 181915Z AUTO 20011KT 10SM CLR 30/17 A2990 RMK AO2
KD50 181855Z AUTO 20010G16KT 9SM CLR 31/16 A2990 RMK AO2
KD50 181835Z AUTO VRB05G15KT 10SM FEW080 FEW090 FEW120 30/17 A2990 RMK AO2
KD50 181815Z AUTO 14007G12KT 10SM CLR 31/16 A2991 RMK AO2
KD50 181755Z AUTO VRB06KT 10SM CLR 31/18 A2991 RMK AO2
KD50 181735Z AUTO VRB05KT 10SM CLR 31/15 A2992 RMK AO2
KD50 181715Z AUTO 13009KT 110V170 10SM CLR 30/15 A2993 RMK AO2
KD50 181655Z AUTO VRB05G10KT 10SM CLR 29/17 A2993 RMK AO2
KD50 181635Z AUTO 10008KT 10SM CLR 29/17 A2993 RMK AO2
KD50 181615Z AUTO 11005KT 10SM CLR 28/19 A2994 RMK AO2
KD50 181555Z AUTO VRB05KT 10SM CLR 27/19 A2994 RMK AO2
KD50 181535Z AUTO VRB04KT 10SM CLR 26/19 A2994 RMK AO2
KD50 181515Z AUTO 15005KT 10SM CLR 25/20 A2995 RMK AO2